Time;durP1;ratioP1;P1;durP2;ratioP2;P2;SDS_P1;SDS_P2;PMS_P1;PMS_P2;Temp;Humidity;BMP_temperature;BMP_pressure;BME280_temperature;BME280_humidity;BME280_pressure;Samples;Min_cycle;Max_cycle;Signal;HPM_P1;HPM_P2
2022/07/28 00:00:09;;;;;;;;;;;;;;;17.83;51.87;96431.88;5077325;28;19966;-73
2022/07/28 00:02:35;;;;;;;;;;;;;;;17.82;51.63;96427.59;5077570;28;20398;-75
2022/07/28 00:05:01;;;;;;;;;;;;;;;17.81;51.29;96426.81;5077469;28;19962;-75
2022/07/28 00:07:27;;;;;;;;;;;;;;;17.81;52.07;96423.38;5077156;28;19964;-74
2022/07/28 00:09:53;;;;;;;;;;;;;;;17.81;52.41;96426.81;5077598;28;20009;-73
2022/07/28 00:12:18;;;;;;;;;;;;;;;17.81;51.96;96418.84;5077200;28;19987;-74
2022/07/28 00:14:44;;;;;;;;;;;;;;;17.79;51.46;96410.34;5077099;28;19973;-74
2022/07/28 00:17:10;;;;;;;;;;;;;;;17.78;51.43;96405.31;5076947;28;19997;-74
2022/07/28 00:19:36;;;;;;;;;;;;;;;17.78;51.86;96407.97;5077060;28;19957;-74
2022/07/28 00:22:03;;;;;;;;;;;;;;;17.75;51.86;96408.50;5076900;28;19966;-74
2022/07/28 00:24:30;;;;;;;;;;;;;;;17.71;52.23;96400.28;5076889;28;19957;-75
2022/07/28 00:26:56;;;;;;;;;;;;;;;17.70;52.27;96409.31;5076029;28;19966;-74
2022/07/28 00:29:22;;;;;;;;;;;;;;;17.65;51.99;96396.81;5076781;28;20003;-74
2022/07/28 00:31:48;;;;;;;;;;;;;;;17.63;52.24;96400.78;5077026;28;19956;-74
2022/07/28 00:34:14;;;;;;;;;;;;;;;17.62;52.20;96391.25;5076739;28;20069;-74
2022/07/28 00:36:40;;;;;;;;;;;;;;;17.58;52.26;96393.63;5076584;28;19953;-74
2022/07/28 00:39:06;;;;;;;;;;;;;;;17.57;52.70;96397.34;5076733;28;20054;-73
2022/07/28 00:41:32;;;;;;;;;;;;;;;17.54;52.39;96397.88;5076830;28;19993;-74
2022/07/28 00:43:57;;;;;;;;;;;;;;;17.51;52.68;96395.72;5076631;28;19958;-74
2022/07/28 00:46:23;;;;;;;;;;;;;;;17.48;52.84;96392.81;5076790;28;20012;-74
2022/07/28 00:48:51;;;;;;;;;;;;;;;17.41;52.75;96398.38;5076618;28;20042;-74
2022/07/28 00:51:18;;;;;;;;;;;;;;;17.36;53.46;96395.72;5076794;28;20321;-74
2022/07/28 00:53:45;;;;;;;;;;;;;;;17.34;53.01;96389.88;5057846;28;19962;-74
2022/07/28 00:56:12;;;;;;;;;;;;;;;17.29;52.70;96398.63;5076322;28;19975;-74
2022/07/28 00:58:38;;;;;;;;;;;;;;;17.27;53.74;96397.28;5076296;28;20319;-75
2022/07/28 01:01:04;;;;;;;;;;;;;;;17.24;53.51;96385.38;5075126;28;20355;-74
2022/07/28 01:03:30;;;;;;;;;;;;;;;17.20;53.37;96389.59;5076300;28;19963;-74
2022/07/28 01:06:15;;;;;;;;;;;;;;;17.17;53.42;96390.09;5058631;28;19969;-74
2022/07/28 01:08:59;;;;;;;;;;;;;;;17.11;53.56;96391.16;5075518;28;19957;-74
2022/07/28 01:11:39;;;;;;;;;;;;;;;17.04;53.25;96386.88;5075222;28;20354;-74
2022/07/28 01:14:09;;;;;;;;;;;;;;;16.99;53.31;96383.44;5076326;28;19963;-74
2022/07/28 01:16:39;;;;;;;;;;;;;;;16.97;54.51;96390.84;5075852;28;19957;-74
2022/07/28 01:19:10;;;;;;;;;;;;;;;16.92;53.93;96378.38;5076134;28;19961;-74
2022/07/28 01:21:39;;;;;;;;;;;;;;;16.89;54.31;96384.19;5075867;28;19957;-74
2022/07/28 01:24:23;;;;;;;;;;;;;;;16.86;54.31;96390.00;5075700;28;19953;-74
2022/07/28 01:26:55;;;;;;;;;;;;;;;16.82;54.62;96388.94;5075843;28;19964;-74
2022/07/28 01:29:21;;;;;;;;;;;;;;;16.82;54.07;96392.38;5075840;28;19954;-74
2022/07/28 01:31:50;;;;;;;;;;;;;;;16.80;54.26;96388.38;5075952;28;19963;-74
2022/07/28 01:34:18;;;;;;;;;;;;;;;16.78;54.32;96382.53;5075096;28;19971;-73
2022/07/28 01:36:48;;;;;;;;;;;;;;;16.77;54.10;96378.28;5075716;28;19959;-73
2022/07/28 01:39:34;;;;;;;;;;;;;;;16.72;54.24;96372.97;5069646;28;19955;-73
2022/07/28 01:42:01;;;;;;;;;;;;;;;16.69;54.28;96371.63;5075344;28;19957;-73
2022/07/28 01:44:28;;;;;;;;;;;;;;;16.66;54.09;96368.72;5075415;28;19964;-74
2022/07/28 01:46:56;;;;;;;;;;;;;;;16.61;54.30;96369.50;5075051;28;19957;-73
2022/07/28 01:49:23;;;;;;;;;;;;;;;16.58;54.18;96370.00;5075189;28;19982;-73
2022/07/28 01:51:50;;;;;;;;;;;;;;;16.54;54.67;96366.28;5075380;28;19959;-74
2022/07/28 01:54:17;;;;;;;;;;;;;;;16.51;54.74;96366.78;5075187;28;19977;-73
2022/07/28 01:56:45;;;;;;;;;;;;;;;16.49;54.48;96367.03;5057512;28;19966;-73
2022/07/28 01:59:12;;;;;;;;;;;;;;;16.45;54.68;96358.03;5075352;28;19954;-72
2022/07/28 02:01:42;;;;;;;;;;;;;;;16.43;55.12;96357.47;5075024;28;19960;-73
2022/07/28 02:04:09;;;;;;;;;;;;;;;16.41;55.50;96356.94;5075398;28;20334;-72
2022/07/28 02:06:36;;;;;;;;;;;;;;;16.39;55.26;96361.69;5075279;28;20317;-73
2022/07/28 02:09:03;;;;;;;;;;;;;;;16.34;55.09;96357.19;5074913;28;19966;-73
2022/07/28 02:11:39;;;;;;;;;;;;;;;16.28;54.96;96350.25;5074464;28;19990;-73
2022/07/28 02:14:10;;;;;;;;;;;;;;;16.25;55.93;96350.75;5075084;28;19959;-73
2022/07/28 02:16:39;;;;;;;;;;;;;;;16.24;56.05;96354.47;5074985;28;19955;-73
2022/07/28 02:19:05;;;;;;;;;;;;;;;16.24;56.17;96346.53;5074695;28;20000;-73
2022/07/28 02:21:31;;;;;;;;;;;;;;;16.24;56.17;96349.97;5074808;28;20418;-72
2022/07/28 02:23:58;;;;;;;;;;;;;;;16.26;56.08;96349.72;5074680;28;19959;-72
2022/07/28 02:26:27;;;;;;;;;;;;;;;16.27;56.11;96342.56;5074475;28;19952;-73
2022/07/28 02:28:56;;;;;;;;;;;;;;;16.28;56.02;96336.25;5074168;28;19962;-72
2022/07/28 02:31:25;;;;;;;;;;;;;;;16.29;55.88;96338.59;5074402;28;19958;-73
2022/07/28 02:33:54;;;;;;;;;;;;;;;16.27;55.33;96334.63;5073170;28;19967;-73
2022/07/28 02:36:24;;;;;;;;;;;;;;;16.24;55.64;96336.75;5069856;28;20006;-72
2022/07/28 02:38:53;;;;;;;;;;;;;;;16.22;55.47;96328.25;5067567;28;19955;-73
2022/07/28 02:41:27;;;;;;;;;;;;;;;16.21;55.69;96334.63;5073861;28;19963;-72
2022/07/28 02:43:55;;;;;;;;;;;;;;;16.21;55.58;96339.91;5074809;28;19969;-72
2022/07/28 02:46:23;;;;;;;;;;;;;;;16.18;55.75;96342.25;5074207;28;19964;-73
2022/07/28 02:48:53;;;;;;;;;;;;;;;16.15;56.06;96338.28;5074213;28;20414;-74
2022/07/28 02:51:22;;;;;;;;;;;;;;;16.14;55.66;96333.25;5061936;28;20346;-72
2022/07/28 02:53:48;;;;;;;;;;;;;;;16.10;55.84;96335.59;5073922;28;19951;-72
2022/07/28 02:56:15;;;;;;;;;;;;;;;16.06;55.61;96326.56;5074198;28;20029;-73
2022/07/28 02:58:41;;;;;;;;;;;;;;;16.03;55.80;96332.38;5074171;28;19969;-72
2022/07/28 03:01:07;;;;;;;;;;;;;;;16.08;57.97;96347.50;5074246;28;19974;-72
2022/07/28 03:03:33;;;;;;;;;;;;;;;16.24;57.91;96333.31;5074031;28;19965;-71
2022/07/28 03:05:59;;;;;;;;;;;;;;;16.42;56.85;96327.56;5073948;28;19957;-72
2022/07/28 03:08:25;;;;;;;;;;;;;;;16.58;56.63;96322.34;5056625;28;20459;-71
2022/07/28 03:11:05;;;;;;;;;;;;;;;16.69;55.96;96316.00;5073924;28;19972;-71
2022/07/28 03:13:31;;;;;;;;;;;;;;;16.81;55.22;96313.19;5074031;28;19971;-74
2022/07/28 03:15:57;;;;;;;;;;;;;;;16.89;54.66;96314.53;5073889;28;20460;-73
2022/07/28 03:18:26;;;;;;;;;;;;;;;16.91;54.46;96307.13;5073722;28;19952;-72
2022/07/28 03:20:52;;;;;;;;;;;;;;;16.90;54.28;96303.66;5073813;28;20404;-71
2022/07/28 03:23:18;;;;;;;;;;;;;;;16.91;54.35;96301.81;5073272;28;19960;-72
2022/07/28 03:25:49;;;;;;;;;;;;;;;16.90;54.31;96313.47;5073042;28;19964;-71
2022/07/28 03:28:19;;;;;;;;;;;;;;;16.92;54.12;96309.50;5073743;28;19964;-71
2022/07/28 03:30:47;;;;;;;;;;;;;;;16.92;53.84;96306.84;5073078;28;20433;-71
2022/07/28 03:33:13;;;;;;;;;;;;;;;16.92;53.75;96308.69;5073835;28;20321;-71
2022/07/28 03:35:43;;;;;;;;;;;;;;;16.89;53.83;96306.59;5073680;28;19981;-71
2022/07/28 03:38:09;;;;;;;;;;;;;;;16.87;53.88;96304.19;5073192;28;19951;-71
2022/07/28 03:40:36;;;;;;;;;;;;;;;16.88;53.77;96311.06;5073387;28;20045;-73
2022/07/28 03:43:05;;;;;;;;;;;;;;;16.83;53.75;96305.78;5073176;28;19961;-71
2022/07/28 03:45:31;;;;;;;;;;;;;;;16.79;53.70;96313.41;5073550;28;19953;-72
2022/07/28 03:47:57;;;;;;;;;;;;;;;16.78;53.55;96309.19;5073591;28;19962;-71
2022/07/28 03:50:25;;;;;;;;;;;;;;;16.77;53.66;96312.88;5073707;28;19960;-71
2022/07/28 03:52:51;;;;;;;;;;;;;;;16.72;53.94;96326.09;5073366;28;20329;-72
2022/07/28 03:55:18;;;;;;;;;;;;;;;16.68;53.99;96329.53;5073310;28;19972;-72
2022/07/28 03:57:44;;;;;;;;;;;;;;;16.69;53.87;96323.97;5073489;28;19978;-72
2022/07/28 04:00:10;;;;;;;;;;;;;;;16.70;53.72;96332.72;5073503;28;20407;-73
2022/07/28 04:02:36;;;;;;;;;;;;;;;16.68;53.87;96329.53;5073242;28;19955;-71
2022/07/28 04:05:02;;;;;;;;;;;;;;;16.63;53.89;96328.47;5073291;28;20485;-72
2022/07/28 04:07:28;;;;;;;;;;;;;;;16.61;54.04;96335.88;5073337;28;19959;-72
2022/07/28 04:09:54;;;;;;;;;;;;;;;16.61;53.94;96327.91;5073469;28;20339;-72
2022/07/28 04:12:20;;;;;;;;;;;;;;;16.60;54.14;96330.81;5073327;28;20000;-72
2022/07/28 04:14:54;;;;;;;;;;;;;;;16.62;54.06;96331.34;5073277;28;19971;-72
2022/07/28 04:17:20;;;;;;;;;;;;;;;16.61;54.30;96335.06;5072996;28;19962;-72
2022/07/28 04:19:46;;;;;;;;;;;;;;;16.60;54.00;96338.75;5073302;28;19964;-71
2022/07/28 04:22:12;;;;;;;;;;;;;;;16.59;54.14;96337.97;5073155;28;20015;-72
2022/07/28 04:24:37;;;;;;;;;;;;;;;16.57;54.43;96340.09;5073019;28;19987;-72
2022/07/28 04:27:03;;;;;;;;;;;;;;;16.57;54.18;96340.09;5073193;28;19970;-72
2022/07/28 04:29:29;;;;;;;;;;;;;;;16.59;53.94;96334.53;5072949;28;20440;-72
2022/07/28 04:31:55;;;;;;;;;;;;;;;16.61;53.98;96335.06;5073426;28;19993;-72
2022/07/28 04:34:21;;;;;;;;;;;;;;;16.62;53.72;96339.31;5072840;28;20335;-72
2022/07/28 04:36:47;;;;;;;;;;;;;;;16.62;54.14;96336.66;5076433;28;19978;-72
2022/07/28 04:39:13;;;;;;;;;;;;;;;16.63;53.95;96338.22;5076542;28;20054;-72
2022/07/28 04:41:40;;;;;;;;;;;;;;;16.66;53.77;96335.09;5076589;28;19964;-72
2022/07/28 04:44:09;;;;;;;;;;;;;;;16.70;53.92;96330.88;5076535;28;19969;-72
2022/07/28 04:46:35;;;;;;;;;;;;;;;16.77;54.03;96335.91;5076766;28;19961;-72
2022/07/28 04:49:01;;;;;;;;;;;;;;;16.84;53.89;96337.31;5076765;28;19998;-72
2022/07/28 04:51:27;;;;;;;;;;;;;;;16.91;53.65;96328.31;5075808;28;19959;-71
2022/07/28 04:53:52;;;;;;;;;;;;;;;16.97;53.83;96327.28;5076509;28;20011;-71
2022/07/28 04:56:18;;;;;;;;;;;;;;;17.01;53.63;96325.69;5076175;28;20016;-71
2022/07/28 04:58:44;;;;;;;;;;;;;;;17.05;53.67;96329.41;5076488;28;20001;-70
2022/07/28 05:01:11;;;;;;;;;;;;;;;17.08;53.50;96330.75;5076198;28;19965;-71
2022/07/28 05:03:37;;;;;;;;;;;;;;;17.11;53.48;96328.34;5058751;28;19959;-71
2022/07/28 05:06:03;;;;;;;;;;;;;;;17.18;53.43;96333.41;5076128;28;20014;-71
2022/07/28 05:08:29;;;;;;;;;;;;;;;17.28;53.61;96337.91;5076151;28;19964;-75
2022/07/28 05:10:55;;;;;;;;;;;;;;;17.42;53.04;96326.53;5075741;28;20009;-72
2022/07/28 05:13:21;;;;;;;;;;;;;;;17.59;52.78;96325.47;5076539;28;20055;-71
2022/07/28 05:15:47;;;;;;;;;;;;;;;17.78;52.72;96320.44;5076090;28;20469;-72
2022/07/28 05:18:13;;;;;;;;;;;;;;;17.94;52.24;96322.03;5075963;28;19959;-72
2022/07/28 05:20:39;;;;;;;;;;;;;;;18.09;52.07;96313.25;5076162;28;20407;-72
2022/07/28 05:23:05;;;;;;;;;;;;;;;18.19;51.68;96312.44;5075788;28;19966;-72
2022/07/28 05:25:31;;;;;;;;;;;;;;;18.21;51.34;96313.75;5076510;28;20390;-72
2022/07/28 05:27:57;;;;;;;;;;;;;;;18.24;51.42;96313.22;5075921;28;19964;-72
2022/07/28 05:30:23;;;;;;;;;;;;;;;18.27;51.18;96303.94;5076192;28;20410;-72
2022/07/28 05:32:49;;;;;;;;;;;;;;;18.39;51.19;96304.41;5075789;28;20403;-72
2022/07/28 05:35:15;;;;;;;;;;;;;;;18.66;50.66;96305.91;5075673;28;19973;-72
2022/07/28 05:37:42;;;;;;;;;;;;;;;18.92;50.57;96300.47;5075353;28;19966;-72
2022/07/28 05:40:15;;;;;;;;;;;;;;;19.13;49.74;96299.31;5058043;28;19956;-72
2022/07/28 05:42:41;;;;;;;;;;;;;;;19.38;49.60;96298.34;5075886;28;20041;-72
2022/07/28 05:45:09;;;;;;;;;;;;;;;19.59;49.57;96298.97;5057639;28;19969;-72
2022/07/28 05:47:46;;;;;;;;;;;;;;;19.79;48.98;96295.34;5074681;28;19957;-72
2022/07/28 05:50:13;;;;;;;;;;;;;;;20.01;48.19;96297.53;5074380;28;19956;-72
2022/07/28 05:52:39;;;;;;;;;;;;;;;20.21;47.80;96287.75;5075222;28;20322;-72
2022/07/28 05:55:06;;;;;;;;;;;;;;;20.37;47.34;96289.16;5075525;28;20444;-72
2022/07/28 05:57:31;;;;;;;;;;;;;;;20.49;47.09;96294.06;5075606;28;19956;-72
2022/07/28 05:59:57;;;;;;;;;;;;;;;20.50;46.70;96285.00;5075579;28;20010;-72
2022/07/28 06:02:23;;;;;;;;;;;;;;;20.41;46.29;96278.72;5075177;28;20478;-72
2022/07/28 06:04:49;;;;;;;;;;;;;;;20.40;46.91;96283.25;5074883;28;19979;-73
2022/07/28 06:07:15;;;;;;;;;;;;;;;20.63;46.88;96289.66;5075325;28;19961;-73
2022/07/28 06:09:41;;;;;;;;;;;;;;;20.84;46.86;96284.06;5057466;28;19984;-73
2022/07/28 06:12:07;;;;;;;;;;;;;;;20.98;46.64;96279.63;5074547;28;19994;-73
2022/07/28 06:14:33;;;;;;;;;;;;;;;21.04;47.04;96278.47;5074964;28;19965;-72
2022/07/28 06:16:58;;;;;;;;;;;;;;;21.13;46.26;96283.94;5074738;28;20399;-75
2022/07/28 06:19:24;;;;;;;;;;;;;;;21.27;45.88;96281.31;5075123;28;19957;-73
2022/07/28 06:21:53;;;;;;;;;;;;;;;21.40;45.40;96279.81;5056950;28;19967;-73
2022/07/28 06:24:19;;;;;;;;;;;;;;;21.46;45.67;96282.13;5073738;28;19966;-73
2022/07/28 06:26:45;;;;;;;;;;;;;;;21.48;45.49;96276.47;5074550;28;19963;-73
2022/07/28 06:29:11;;;;;;;;;;;;;;;21.58;45.96;96281.66;5074795;28;19959;-72
2022/07/28 06:31:37;;;;;;;;;;;;;;;21.76;45.89;96280.03;5073846;28;19954;-73
2022/07/28 06:34:03;;;;;;;;;;;;;;;21.72;43.89;96271.00;5074459;28;19961;-76
2022/07/28 06:36:29;;;;;;;;;;;;;;;21.62;45.51;96282.66;5074145;28;20060;-73
2022/07/28 06:38:55;;;;;;;;;;;;;;;21.80;45.67;96281.03;5074283;28;19967;-73
2022/07/28 06:41:21;;;;;;;;;;;;;;;21.94;45.50;96278.34;5074579;28;20408;-73
2022/07/28 06:43:47;;;;;;;;;;;;;;;22.17;45.23;96273.13;5074365;28;20014;-73
2022/07/28 06:46:17;;;;;;;;;;;;;;;22.41;44.70;96276.44;5073996;28;20412;-73
2022/07/28 06:48:44;;;;;;;;;;;;;;;22.60;43.93;96270.97;5074364;28;19970;-73
2022/07/28 06:51:11;;;;;;;;;;;;;;;22.75;44.14;96267.19;5074282;28;19969;-73
2022/07/28 06:53:37;;;;;;;;;;;;;;;22.87;43.84;96274.69;5074254;28;19979;-73
2022/07/28 06:56:03;;;;;;;;;;;;;;;22.87;43.43;96270.13;5074127;28;20445;-73
2022/07/28 06:58:29;;;;;;;;;;;;;;;22.92;43.87;96276.47;5074107;28;19960;-73
2022/07/28 07:00:55;;;;;;;;;;;;;;;22.98;43.54;96278.72;5074174;28;20315;-73
2022/07/28 07:03:21;;;;;;;;;;;;;;;23.11;44.07;96279.78;5073819;28;19997;-73
2022/07/28 07:05:47;;;;;;;;;;;;;;;23.12;42.28;96278.72;5074055;28;20033;-71
2022/07/28 07:08:13;;;;;;;;;;;;;;;23.14;43.45;96283.75;5074198;28;19971;-72
2022/07/28 07:10:38;;;;;;;;;;;;;;;23.18;43.48;96282.03;5073916;28;19966;-73
2022/07/28 07:13:04;;;;;;;;;;;;;;;23.22;43.67;96275.78;5074193;28;20539;-73
2022/07/28 07:15:30;;;;;;;;;;;;;;;23.30;43.76;96282.28;5073655;28;19991;-75
2022/07/28 07:17:56;;;;;;;;;;;;;;;23.33;43.68;96279.03;5073340;28;19967;-73
2022/07/28 07:20:22;;;;;;;;;;;;;;;23.50;43.97;96286.38;5073632;28;19957;-73
2022/07/28 07:22:48;;;;;;;;;;;;;;;23.60;43.36;96277.28;5073592;28;20405;-73
2022/07/28 07:25:15;;;;;;;;;;;;;;;23.68;43.48;96280.03;5073851;28;19957;-73
2022/07/28 07:27:41;;;;;;;;;;;;;;;23.79;43.33;96279.81;5073536;28;19954;-73
2022/07/28 07:30:08;;;;;;;;;;;;;;;23.96;43.39;96277.22;5073554;28;20332;-74
2022/07/28 07:32:34;;;;;;;;;;;;;;;24.11;43.73;96276.03;5074374;28;19953;-73
2022/07/28 07:35:00;;;;;;;;;;;;;;;24.25;43.28;96274.03;5073433;28;19966;-74
2022/07/28 07:37:26;;;;;;;;;;;;;;;24.28;42.30;96272.63;5073955;28;20440;-73
2022/07/28 07:39:51;;;;;;;;;;;;;;;24.28;42.93;96269.94;5055640;28;19998;-73
2022/07/28 07:42:17;;;;;;;;;;;;;;;24.27;43.35;96274.53;5073189;28;20007;-73
2022/07/28 07:44:43;;;;;;;;;;;;;;;24.31;43.44;96272.78;5073409;28;19956;-73
2022/07/28 07:47:09;;;;;;;;;;;;;;;24.42;43.22;96267.94;5073344;28;19957;-73
2022/07/28 07:49:38;;;;;;;;;;;;;;;24.55;42.73;96262.78;5073381;28;19967;-73
2022/07/28 07:52:04;;;;;;;;;;;;;;;24.40;43.37;96272.81;5073749;28;20442;-72
2022/07/28 07:54:30;;;;;;;;;;;;;;;24.18;43.94;96278.25;5073435;28;20001;-73
2022/07/28 07:56:56;;;;;;;;;;;;;;;24.15;44.20;96278.88;5073435;28;20015;-73
2022/07/28 07:59:22;;;;;;;;;;;;;;;24.22;44.03;96271.97;5073285;28;20392;-72
2022/07/28 08:01:53;;;;;;;;;;;;;;;24.43;44.51;96277.56;5073597;28;19956;-73
2022/07/28 08:04:20;;;;;;;;;;;;;;;24.48;43.68;96269.38;5073591;28;20357;-74
2022/07/28 08:06:47;;;;;;;;;;;;;;;24.39;44.09;96265.88;5073280;28;19952;-72
2022/07/28 08:09:13;;;;;;;;;;;;;;;24.43;44.14;96266.81;5073445;28;19961;-73
2022/07/28 08:11:39;;;;;;;;;;;;;;;24.59;43.99;96258.38;5058759;28;19985;-74
2022/07/28 08:14:05;;;;;;;;;;;;;;;24.82;43.92;96259.03;5077336;28;19969;-73
2022/07/28 08:16:31;;;;;;;;;;;;;;;24.98;43.90;96254.78;5076867;28;19978;-73
2022/07/28 08:18:57;;;;;;;;;;;;;;;25.03;43.47;96256.53;5077047;28;19956;-73
2022/07/28 08:21:24;;;;;;;;;;;;;;;24.89;43.15;96254.78;5076977;28;20307;-73
2022/07/28 08:23:50;;;;;;;;;;;;;;;24.89;43.44;96254.00;5077305;28;19951;-73
2022/07/28 08:26:16;;;;;;;;;;;;;;;24.91;43.11;96247.22;5077129;28;20328;-73
2022/07/28 08:28:42;;;;;;;;;;;;;;;25.08;43.37;96254.47;5076724;28;19985;-73
2022/07/28 08:31:08;;;;;;;;;;;;;;;25.06;43.05;96250.53;5077266;28;20363;-73
2022/07/28 08:33:34;;;;;;;;;;;;;;;25.18;43.81;96260.63;5077153;28;20322;-74
2022/07/28 08:36:00;;;;;;;;;;;;;;;25.33;43.22;96249.44;5076692;28;20021;-72
2022/07/28 08:38:26;;;;;;;;;;;;;;;25.37;43.57;96249.59;5076862;28;19993;-73
2022/07/28 08:40:55;;;;;;;;;;;;;;;25.46;43.12;96245.00;5076692;28;19985;-73
2022/07/28 08:43:21;;;;;;;;;;;;;;;25.41;42.76;96251.34;5076498;28;20411;-73
2022/07/28 08:45:47;;;;;;;;;;;;;;;25.39;43.52;96253.53;5077233;28;19990;-73
2022/07/28 08:48:15;;;;;;;;;;;;;;;25.20;43.07;96250.34;5076505;28;19958;-72
2022/07/28 08:50:42;;;;;;;;;;;;;;;25.08;43.59;96254.47;5058877;28;19966;-73
2022/07/28 08:53:09;;;;;;;;;;;;;;;24.94;44.10;96258.41;5076665;28;19950;-73
2022/07/28 08:55:35;;;;;;;;;;;;;;;24.86;44.28;96252.75;5076342;28;20427;-73
2022/07/28 08:58:02;;;;;;;;;;;;;;;24.89;45.24;96268.19;5076990;28;19962;-72
2022/07/28 09:00:28;;;;;;;;;;;;;;;24.85;44.64;96259.19;5076290;28;19956;-73
2022/07/28 09:02:54;;;;;;;;;;;;;;;24.92;43.79;96254.19;5076170;28;19956;-73
2022/07/28 09:05:21;;;;;;;;;;;;;;;25.07;44.49;96255.59;5076192;28;19968;-73
2022/07/28 09:07:49;;;;;;;;;;;;;;;25.29;44.96;96260.03;5076131;28;20336;-73
2022/07/28 09:10:16;;;;;;;;;;;;;;;25.31;43.12;96240.94;5076008;28;19984;-72
2022/07/28 09:12:42;;;;;;;;;;;;;;;25.25;44.31;96253.72;5075559;28;19987;-73
2022/07/28 09:15:09;;;;;;;;;;;;;;;25.31;44.81;96252.44;5076113;28;19968;-73
2022/07/28 09:17:35;;;;;;;;;;;;;;;25.28;43.47;96238.84;5076545;28;19976;-72
2022/07/28 09:20:02;;;;;;;;;;;;;;;25.28;43.66;96237.00;5076054;28;19961;-73
2022/07/28 09:22:28;;;;;;;;;;;;;;;25.18;44.13;96242.66;5074715;28;20444;-73
2022/07/28 09:24:54;;;;;;;;;;;;;;;25.22;44.18;96248.19;5075748;28;19961;-72
2022/07/28 09:27:19;;;;;;;;;;;;;;;25.30;43.58;96237.47;5058108;28;19971;-73
2022/07/28 09:29:47;;;;;;;;;;;;;;;25.41;44.73;96247.84;5075494;28;19984;-72
2022/07/28 09:32:14;;;;;;;;;;;;;;;25.36;44.18;96248.81;5075605;28;19957;-73
2022/07/28 09:34:44;;;;;;;;;;;;;;;25.27;44.59;96245.34;5076115;28;19963;-73
2022/07/28 09:37:16;;;;;;;;;;;;;;;25.15;44.33;96248.63;5044620;28;19975;-74
2022/07/28 09:39:42;;;;;;;;;;;;;;;25.05;45.27;96249.75;5075939;28;19967;-73
2022/07/28 09:42:08;;;;;;;;;;;;;;;25.29;45.16;96246.59;5075616;28;20004;-72
2022/07/28 09:44:34;;;;;;;;;;;;;;;25.39;44.50;96242.81;5075987;28;20420;-73
2022/07/28 09:47:19;;;;;;;;;;;;;;;25.38;44.56;96238.53;5075473;28;19972;-73
2022/07/28 09:49:45;;;;;;;;;;;;;;;25.21;44.18;96238.56;5075374;28;20011;-72
2022/07/28 09:52:11;;;;;;;;;;;;;;;25.17;45.28;96241.06;5075478;28;20408;-72
2022/07/28 09:54:37;;;;;;;;;;;;;;;25.18;44.79;96231.09;5075376;28;19964;-73
2022/07/28 09:57:03;;;;;;;;;;;;;;;25.27;45.86;96240.75;5075323;28;20448;-72
2022/07/28 09:59:47;;;;;;;;;;;;;;;25.52;45.29;96238.38;5075358;28;19967;-73
2022/07/28 10:02:21;;;;;;;;;;;;;;;25.75;44.76;96230.88;5075154;28;20419;-73
2022/07/28 10:04:49;;;;;;;;;;;;;;;25.67;43.84;96226.31;5057773;28;19950;-73
2022/07/28 10:07:18;;;;;;;;;;;;;;;25.64;44.37;96226.94;5075112;28;19966;-73
2022/07/28 10:10:01;;;;;;;;;;;;;;;25.48;44.21;96224.00;5074894;28;19961;-73
2022/07/28 10:12:31;;;;;;;;;;;;;;;25.38;44.76;96224.31;5074759;28;19987;-74
2022/07/28 10:16:09;;;;;;;;;;;;;;;25.51;45.32;96224.16;5074126;28;19956;-72
2022/07/28 10:17:56;;;;;;;;;;;;;;;25.79;44.50;96210.31;5074666;28;19967;-73
2022/07/28 10:20:22;;;;;;;;;;;;;;;25.81;43.64;96220.75;5057432;28;20321;-73
2022/07/28 10:22:48;;;;;;;;;;;;;;;25.78;44.11;96208.72;5074905;28;19972;-73
2022/07/28 10:25:15;;;;;;;;;;;;;;;26.05;44.29;96206.75;5074781;28;19956;-72
2022/07/28 10:27:41;;;;;;;;;;;;;;;26.20;43.73;96205.41;5074535;28;19983;-73
2022/07/28 10:30:08;;;;;;;;;;;;;;;26.35;44.32;96199.47;5064913;28;19955;-73
2022/07/28 10:32:44;;;;;;;;;;;;;;;26.46;43.28;96197.22;5074166;28;19960;-73
2022/07/28 10:35:14;;;;;;;;;;;;;;;26.48;42.62;96193.06;5074512;28;19969;-73
2022/07/28 10:37:46;;;;;;;;;;;;;;;26.35;42.66;96188.72;5074655;28;19973;-73
2022/07/28 10:40:13;;;;;;;;;;;;;;;26.31;43.42;96203.91;5074504;28;20408;-73
2022/07/28 10:42:40;;;;;;;;;;;;;;;26.40;43.37;96199.31;5075165;28;20328;-73
2022/07/28 10:45:08;;;;;;;;;;;;;;;26.38;42.07;96190.00;5074234;28;19961;-73
2022/07/28 10:47:33;;;;;;;;;;;;;;;26.38;43.13;96198.84;5074291;28;20018;-72
2022/07/28 10:50:00;;;;;;;;;;;;;;;26.31;41.91;96187.78;5074338;28;21036;-73
2022/07/28 10:52:26;;;;;;;;;;;;;;;26.56;43.12;96204.09;5074409;28;20436;-73
2022/07/28 10:54:59;;;;;;;;;;;;;;;26.83;42.70;96187.44;5074004;28;19972;-73
2022/07/28 10:57:25;;;;;;;;;;;;;;;27.10;42.56;96193.41;5073598;28;20457;-73
2022/07/28 10:59:57;;;;;;;;;;;;;;;27.22;41.89;96190.78;5074096;28;19959;-73
2022/07/28 11:02:41;;;;;;;;;;;;;;;27.30;41.91;96198.00;5074063;28;19955;-74
2022/07/28 11:05:26;;;;;;;;;;;;;;;27.40;41.00;96183.31;5074072;28;19965;-73
2022/07/28 11:07:52;;;;;;;;;;;;;;;27.38;40.97;96184.75;5074225;28;19957;-73
2022/07/28 11:10:18;;;;;;;;;;;;;;;27.12;41.27;96188.47;5073878;28;19962;-74
2022/07/28 11:12:48;;;;;;;;;;;;;;;26.89;40.99;96185.34;5073831;28;20447;-73
2022/07/28 11:15:33;;;;;;;;;;;;;;;26.86;42.13;96197.56;5073699;28;19957;-73
2022/07/28 11:18:08;;;;;;;;;;;;;;;26.86;41.25;96194.09;5074111;28;19982;-73
2022/07/28 11:20:56;;;;;;;;;;;;;;;26.89;41.11;96198.81;5056108;28;20441;-72
2022/07/28 11:23:41;;;;;;;;;;;;;;;27.11;41.60;96190.41;5073831;28;19980;-73
2022/07/28 11:26:19;;;;;;;;;;;;;;;27.32;39.98;96179.59;5074377;28;19950;-73
2022/07/28 11:29:09;;;;;;;;;;;;;;;27.33;40.18;96175.78;5058578;28;20006;-73
2022/07/28 11:31:47;;;;;;;;;;;;;;;27.55;40.88;96179.22;5073990;28;19954;-74
2022/07/28 11:34:13;;;;;;;;;;;;;;;27.42;40.34;96173.00;5073527;28;19960;-75
2022/07/28 11:37:01;;;;;;;;;;;;;;;27.36;38.77;96160.06;5074129;28;19981;-74
2022/07/28 11:39:28;;;;;;;;;;;;;;;27.39;39.61;96172.91;5073381;28;19965;-73
2022/07/28 11:41:54;;;;;;;;;;;;;;;27.52;39.68;96169.09;5073378;28;19968;-73
2022/07/28 11:44:27;;;;;;;;;;;;;;;27.46;38.69;96167.72;5072917;28;19966;-73
2022/07/28 11:46:53;;;;;;;;;;;;;;;27.39;39.77;96157.50;5072998;28;19968;-73
2022/07/28 11:49:20;;;;;;;;;;;;;;;27.50;39.94;96165.94;5073501;28;19960;-74
2022/07/28 11:52:05;;;;;;;;;;;;;;;27.54;39.57;96166.84;5073867;28;19958;-73
2022/07/28 11:54:31;;;;;;;;;;;;;;;27.68;38.33;96153.06;5073604;28;19963;-73
2022/07/28 11:56:57;;;;;;;;;;;;;;;27.71;38.80;96150.47;5073313;28;20083;-73
2022/07/28 11:59:23;;;;;;;;;;;;;;;27.72;39.17;96160.16;5073426;28;19953;-74
2022/07/28 12:01:53;;;;;;;;;;;;;;;27.99;39.54;96163.34;5073629;28;19950;-73
2022/07/28 12:04:19;;;;;;;;;;;;;;;28.26;38.88;96153.72;5073432;28;19961;-73
2022/07/28 12:06:45;;;;;;;;;;;;;;;28.41;37.47;96138.78;5073280;28;19977;-73
2022/07/28 12:09:16;;;;;;;;;;;;;;;28.32;37.53;96154.28;5055496;28;19967;-73
2022/07/28 12:11:44;;;;;;;;;;;;;;;28.22;35.83;96144.75;5072980;28;20450;-73
2022/07/28 12:14:12;;;;;;;;;;;;;;;28.08;36.67;96158.59;5073619;28;19978;-73
2022/07/28 12:16:39;;;;;;;;;;;;;;;28.16;36.18;96153.41;5073393;28;19988;-72
2022/07/28 12:19:06;;;;;;;;;;;;;;;28.29;37.88;96155.75;5072931;28;19953;-73
2022/07/28 12:21:42;;;;;;;;;;;;;;;28.25;36.85;96141.38;5073267;28;19959;-73
2022/07/28 12:24:14;;;;;;;;;;;;;;;28.37;36.70;96148.69;5073013;28;19953;-73
2022/07/28 12:26:40;;;;;;;;;;;;;;;28.60;37.27;96142.78;5055541;28;20340;-73
2022/07/28 12:29:09;;;;;;;;;;;;;;;28.66;37.37;96144.13;5073056;28;20349;-73
2022/07/28 12:31:36;;;;;;;;;;;;;;;28.69;36.66;96135.34;5073256;28;19964;-73
2022/07/28 12:34:05;;;;;;;;;;;;;;;28.51;35.97;96138.31;5042943;28;19962;-74
2022/07/28 12:36:32;;;;;;;;;;;;;;;28.63;36.94;96142.13;5072719;28;19981;-74
2022/07/28 12:38:59;;;;;;;;;;;;;;;28.80;36.24;96138.34;5072871;28;19968;-73
2022/07/28 12:41:29;;;;;;;;;;;;;;;28.90;35.72;96127.84;5073592;28;20411;-74
2022/07/28 12:43:55;;;;;;;;;;;;;;;29.10;35.53;96125.28;5073342;28;19960;-74
2022/07/28 12:46:22;;;;;;;;;;;;;;;29.08;34.65;96120.22;5072906;28;19962;-73
2022/07/28 12:48:48;;;;;;;;;;;;;;;28.75;33.66;96115.09;5073093;28;19975;-73
2022/07/28 12:51:29;;;;;;;;;;;;;;;28.60;35.18;96122.00;5072689;28;19965;-74